createdAt,value
2023-11-13T00:00:05.399Z,22.73
2023-11-13T00:02:33.526Z,20.73
2023-11-13T00:05:01.129Z,21.38
2023-11-13T00:07:28.506Z,21.48
2023-11-13T00:09:55.989Z,21.08
2023-11-13T00:12:23.428Z,20.80
2023-11-13T00:14:51.052Z,20.02
2023-11-13T00:17:19.162Z,20.23
2023-11-13T00:19:46.625Z,19.92
2023-11-13T00:22:13.999Z,20.45
2023-11-13T00:24:41.398Z,19.92
2023-11-13T00:27:08.825Z,19.50
2023-11-13T00:29:36.249Z,19.83
2023-11-13T00:32:03.677Z,20.27
2023-11-13T00:34:32.149Z,19.77
2023-11-13T00:36:59.481Z,19.00
2023-11-13T00:39:26.846Z,19.38
2023-11-13T00:41:54.186Z,19.25
2023-11-13T00:44:21.487Z,18.55
2023-11-13T00:46:48.933Z,18.38
2023-11-13T00:49:16.506Z,19.08
2023-11-13T00:51:44.275Z,18.90
2023-11-13T00:54:11.618Z,18.35
2023-11-13T00:56:38.975Z,18.95
2023-11-13T00:59:06.348Z,18.70
2023-11-13T01:01:34.029Z,18.27
2023-11-13T01:04:01.669Z,17.40
2023-11-13T01:06:29.090Z,18.10
2023-11-13T01:08:56.593Z,18.50
2023-11-13T01:11:24.033Z,18.27
2023-11-13T01:13:51.430Z,17.48
2023-11-13T01:16:22.284Z,17.13
2023-11-13T01:18:54.406Z,17.15
2023-11-13T01:21:23.789Z,17.00
2023-11-13T01:23:51.210Z,16.80
2023-11-13T01:26:18.547Z,16.90
2023-11-13T01:28:47.210Z,16.75
2023-11-13T01:31:17.087Z,17.38
2023-11-13T01:33:44.710Z,16.38
2023-11-13T01:36:12.180Z,17.85
2023-11-13T01:38:39.491Z,17.95
2023-11-13T01:41:06.858Z,18.20
2023-11-13T01:43:34.202Z,17.48
2023-11-13T01:46:03.626Z,17.58
2023-11-13T01:48:31.052Z,17.45
2023-11-13T01:50:58.688Z,18.80
2023-11-13T01:53:27.425Z,17.67
2023-11-13T01:55:58.085Z,17.80
2023-11-13T01:58:26.455Z,18.33
2023-11-13T02:00:54.219Z,17.83
2023-11-13T02:03:22.473Z,18.35
2023-11-13T02:05:50.199Z,17.30
2023-11-13T02:08:17.590Z,16.35
2023-11-13T02:10:45.047Z,18.08
2023-11-13T02:13:13.401Z,18.17
2023-11-13T02:15:42.009Z,17.65
2023-11-13T02:18:10.079Z,18.55
2023-11-13T02:20:37.567Z,18.58
2023-11-13T02:23:06.280Z,17.92
2023-11-13T02:25:37.856Z,17.70
2023-11-13T02:28:06.439Z,17.35
2023-11-13T02:30:40.142Z,17.85
2023-11-13T02:33:07.925Z,17.88
2023-11-13T02:35:35.666Z,17.70
2023-11-13T02:38:03.054Z,18.77
2023-11-13T02:40:30.490Z,17.50
2023-11-13T02:42:57.983Z,17.92
2023-11-13T02:45:25.783Z,17.90
2023-11-13T02:47:53.949Z,18.27
2023-11-13T02:50:22.131Z,17.67
2023-11-13T02:52:49.997Z,17.77
2023-11-13T02:55:17.773Z,18.73
2023-11-13T02:57:45.210Z,19.05
2023-11-13T03:00:13.004Z,18.40
2023-11-13T03:02:40.441Z,18.50
2023-11-13T03:05:09.665Z,19.25
2023-11-13T03:07:37.096Z,19.05
2023-11-13T03:10:04.896Z,18.15
2023-11-13T03:12:32.256Z,18.65
2023-11-13T03:14:59.673Z,19.05
2023-11-13T03:17:27.098Z,19.13
2023-11-13T03:19:54.488Z,19.10
2023-11-13T03:22:21.828Z,19.83
2023-11-13T03:24:49.243Z,20.65
2023-11-13T03:27:16.574Z,20.10
2023-11-13T03:29:43.891Z,21.15
2023-11-13T03:32:11.322Z,20.50
2023-11-13T03:34:38.821Z,19.95
2023-11-13T03:37:06.348Z,21.15
2023-11-13T03:39:33.860Z,21.38
2023-11-13T03:42:01.310Z,21.17
2023-11-13T03:44:28.634Z,22.48
2023-11-13T03:46:56.003Z,22.95
2023-11-13T03:49:23.388Z,24.67
2023-11-13T03:51:51.105Z,24.15
2023-11-13T03:54:18.585Z,24.70
2023-11-13T03:56:46.066Z,24.83
2023-11-13T03:59:14.000Z,24.05
2023-11-13T04:01:41.498Z,26.10
2023-11-13T04:04:10.450Z,25.67
2023-11-13T04:06:37.948Z,25.17
2023-11-13T04:09:09.848Z,24.10
2023-11-13T04:11:37.230Z,28.10
2023-11-13T04:14:04.610Z,28.63
2023-11-13T04:16:31.945Z,28.02
2023-11-13T04:18:59.403Z,28.45
2023-11-13T04:21:26.801Z,30.50
2023-11-13T04:23:54.194Z,32.30
2023-11-13T04:26:21.471Z,32.20
2023-11-13T04:28:48.865Z,33.13
2023-11-13T04:31:16.998Z,33.70
2023-11-13T04:33:44.449Z,34.85
2023-11-13T04:36:12.191Z,36.67
2023-11-13T04:38:41.352Z,37.25
2023-11-13T04:41:10.550Z,36.60
2023-11-13T04:43:39.695Z,36.42
2023-11-13T04:46:07.616Z,34.45
2023-11-13T04:48:35.296Z,36.60
2023-11-13T04:51:03.036Z,38.92
2023-11-13T04:53:30.412Z,38.03
2023-11-13T04:55:57.853Z,39.55
2023-11-13T04:58:25.428Z,36.80
2023-11-13T05:00:52.872Z,37.63
2023-11-13T05:03:20.358Z,40.70
2023-11-13T05:05:47.688Z,39.50
2023-11-13T05:08:15.497Z,40.45
2023-11-13T05:10:42.879Z,42.97
2023-11-13T05:13:10.672Z,44.53
2023-11-13T05:15:38.069Z,42.10
2023-11-13T05:18:08.756Z,40.47
2023-11-13T05:20:47.778Z,41.05
2023-11-13T05:23:15.364Z,44.10
2023-11-13T05:25:44.282Z,44.75
2023-11-13T05:28:12.741Z,44.28
2023-11-13T05:30:41.043Z,44.22
2023-11-13T05:33:10.096Z,47.33
2023-11-13T05:35:37.637Z,49.40
2023-11-13T05:38:05.061Z,45.38
2023-11-13T05:40:32.563Z,43.92
2023-11-13T05:43:00.574Z,47.58
2023-11-13T05:45:27.949Z,49.10
2023-11-13T05:47:55.408Z,49.80
2023-11-13T05:50:22.814Z,47.92
2023-11-13T05:52:50.168Z,49.45
2023-11-13T05:55:17.626Z,46.78
2023-11-13T05:57:46.436Z,49.35
2023-11-13T06:00:14.147Z,45.50
2023-11-13T06:02:41.755Z,47.60
2023-11-13T06:05:10.522Z,43.85
2023-11-13T06:07:38.781Z,45.17
2023-11-13T06:10:11.578Z,44.92
2023-11-13T06:15:14.352Z,39.30
2023-11-13T06:17:43.083Z,38.42
2023-11-13T06:20:14.721Z,39.15
2023-11-13T06:22:42.807Z,37.33
2023-11-13T06:25:11.471Z,38.63
2023-11-13T06:27:39.522Z,36.85
2023-11-13T06:30:11.043Z,36.22
2023-11-13T06:32:38.460Z,35.00
2023-11-13T06:35:07.119Z,35.90
2023-11-13T06:37:34.806Z,35.90
2023-11-13T06:40:02.361Z,37.47
2023-11-13T06:42:29.735Z,40.22
2023-11-13T06:44:57.416Z,38.63
2023-11-13T06:47:24.836Z,40.45
2023-11-13T06:49:52.199Z,40.78
2023-11-13T06:52:19.755Z,39.08
2023-11-13T06:54:47.135Z,43.70
2023-11-13T06:57:14.517Z,43.60
2023-11-13T06:59:44.566Z,45.65
2023-11-13T07:02:12.187Z,46.42
2023-11-13T07:04:41.299Z,45.35
2023-11-13T07:07:09.612Z,45.13
2023-11-13T07:09:36.988Z,45.55
2023-11-13T07:12:05.612Z,47.20
2023-11-13T07:14:32.930Z,47.10
2023-11-13T07:17:00.481Z,48.67
2023-11-13T07:19:28.109Z,46.55
2023-11-13T07:21:55.671Z,48.05
2023-11-13T07:24:23.008Z,45.97
2023-11-13T07:26:50.408Z,45.03
2023-11-13T07:29:17.833Z,45.78
2023-11-13T07:31:45.258Z,44.38
2023-11-13T07:34:12.942Z,42.92
2023-11-13T07:36:40.281Z,41.45
2023-11-13T07:39:10.870Z,41.38
2023-11-13T07:41:38.631Z,37.65
2023-11-13T07:44:06.369Z,37.17
2023-11-13T07:46:35.659Z,36.17
2023-11-13T07:49:03.561Z,34.10
2023-11-13T07:51:33.034Z,35.08
2023-11-13T07:54:01.997Z,30.98
2023-11-13T07:56:29.408Z,31.20
2023-11-13T07:58:58.560Z,29.17
2023-11-13T08:01:26.051Z,27.30
2023-11-13T08:03:53.805Z,26.48
2023-11-13T08:06:21.159Z,25.85
2023-11-13T08:08:50.761Z,25.00
2023-11-13T08:11:19.091Z,24.98
2023-11-13T08:13:46.800Z,24.77
2023-11-13T08:16:22.970Z,23.52
2023-11-13T08:18:50.350Z,22.60
2023-11-13T08:21:21.016Z,22.20
2023-11-13T08:23:48.467Z,21.08
2023-11-13T08:26:18.240Z,21.30
2023-11-13T08:28:48.102Z,20.58
2023-11-13T08:31:17.703Z,20.48
2023-11-13T08:33:48.593Z,20.27
2023-11-13T08:36:22.941Z,21.10
2023-11-13T08:38:50.828Z,17.48
2023-11-13T08:41:19.394Z,15.85
2023-11-13T08:43:47.414Z,13.70
2023-11-13T08:46:15.215Z,15.70
2023-11-13T08:48:45.098Z,17.00
2023-11-13T08:51:12.958Z,15.02
2023-11-13T08:53:43.892Z,11.32
2023-11-13T08:56:16.840Z,10.38
2023-11-13T09:01:20.832Z,9.35
2023-11-13T09:03:49.586Z,7.53
2023-11-13T09:06:16.969Z,7.68
2023-11-13T09:08:44.760Z,8.73
2023-11-13T09:11:18.132Z,7.72
2023-11-13T09:13:47.940Z,7.43
2023-11-13T09:16:15.760Z,6.63
2023-11-13T09:18:50.148Z,7.32
2023-11-13T09:21:19.175Z,7.55
2023-11-13T09:23:49.972Z,8.00
2023-11-13T09:26:17.358Z,7.90
2023-11-13T09:28:45.044Z,8.05
2023-11-13T09:31:12.530Z,7.97
2023-11-13T09:33:46.948Z,5.53
2023-11-13T09:36:14.360Z,5.70
2023-11-13T09:38:42.292Z,5.45
2023-11-13T09:41:10.066Z,4.25
2023-11-13T09:43:40.475Z,4.68
2023-11-13T09:46:10.592Z,4.05
2023-11-13T09:48:52.213Z,4.43
2023-11-13T09:51:27.995Z,4.30
2023-11-13T09:53:59.728Z,4.63
2023-11-13T09:56:31.717Z,4.63
2023-11-13T09:59:04.387Z,3.78
2023-11-13T10:01:32.741Z,3.60
2023-11-13T10:04:06.510Z,4.78
2023-11-13T10:06:37.054Z,4.63
2023-11-13T10:09:05.551Z,3.80
2023-11-13T10:11:34.071Z,4.00
2023-11-13T10:14:14.490Z,3.67
2023-11-13T10:16:41.982Z,4.72
2023-11-13T10:19:19.588Z,5.15
2023-11-13T10:21:47.395Z,5.55
2023-11-13T10:24:30.745Z,6.38
2023-11-13T10:27:08.153Z,7.80
2023-11-13T10:29:35.999Z,7.75
2023-11-13T10:32:06.461Z,8.57
2023-11-13T10:34:45.231Z,9.38
2023-11-13T10:37:14.154Z,9.43
2023-11-13T10:39:44.490Z,11.07
2023-11-13T10:42:20.227Z,11.98
2023-11-13T10:44:47.800Z,12.65
2023-11-13T10:47:27.369Z,14.77
2023-11-13T10:49:59.492Z,14.85
2023-11-13T10:52:31.492Z,14.93
2023-11-13T10:55:01.566Z,16.17
2023-11-13T10:57:29.660Z,15.93
2023-11-13T10:59:57.901Z,19.50
2023-11-13T11:02:31.523Z,16.58
2023-11-13T11:05:02.067Z,16.13
2023-11-13T11:07:32.598Z,16.92
2023-11-13T11:10:03.005Z,17.25
2023-11-13T11:12:41.124Z,18.83
2023-11-13T11:15:27.695Z,17.70
2023-11-13T11:18:47.154Z,15.43
2023-11-13T11:21:23.531Z,16.65
2023-11-13T11:23:59.405Z,16.63
2023-11-13T11:26:26.812Z,17.38
2023-11-13T11:28:56.085Z,16.08
2023-11-13T11:31:39.292Z,16.48
2023-11-13T11:34:08.126Z,15.48
2023-11-13T11:36:37.859Z,15.35
2023-11-13T11:39:16.297Z,15.75
2023-11-13T11:41:44.264Z,15.05
2023-11-13T11:44:15.094Z,15.38
2023-11-13T11:46:52.407Z,15.25
2023-11-13T11:49:29.590Z,13.88
2023-11-13T11:52:10.086Z,12.82
2023-11-13T11:54:37.830Z,12.60
2023-11-13T11:57:11.169Z,12.45
2023-11-13T11:59:40.833Z,12.15
2023-11-13T12:02:15.007Z,11.40
2023-11-13T12:04:42.636Z,11.40
2023-11-13T12:07:11.248Z,11.82
2023-11-13T12:09:43.332Z,11.27
2023-11-13T12:12:12.181Z,9.20
2023-11-13T12:14:39.485Z,9.77
2023-11-13T12:17:08.612Z,9.18
2023-11-13T12:19:35.950Z,7.50
2023-11-13T12:22:04.925Z,7.63
2023-11-13T12:24:36.776Z,7.05
2023-11-13T12:27:06.451Z,6.47
2023-11-13T12:29:33.413Z,6.53
2023-11-13T12:32:02.624Z,6.70
2023-11-13T12:34:31.846Z,6.88
2023-11-13T12:36:59.583Z,6.03
2023-11-13T12:39:28.874Z,5.53
2023-11-13T12:41:56.622Z,6.13
2023-11-13T12:44:25.315Z,6.15
2023-11-13T12:46:55.994Z,5.15
2023-11-13T12:49:23.811Z,5.15
2023-11-13T12:51:51.328Z,4.10
2023-11-13T12:54:18.389Z,4.25
2023-11-13T12:56:48.332Z,3.95
2023-11-13T12:59:18.714Z,4.40
2023-11-13T13:01:47.232Z,3.83
2023-11-13T13:04:21.578Z,4.38
2023-11-13T13:06:55.343Z,4.03
2023-11-13T13:09:23.729Z,3.75
2023-11-13T13:11:51.808Z,4.10
2023-11-13T13:14:19.214Z,3.45
2023-11-13T13:16:51.278Z,3.53
2023-11-13T13:19:21.889Z,4.07
2023-11-13T13:21:49.923Z,3.47
2023-11-13T13:24:16.964Z,3.55
2023-11-13T13:26:44.788Z,4.13
2023-11-13T13:29:14.045Z,3.38
2023-11-13T13:31:42.062Z,2.90
2023-11-13T13:34:09.370Z,3.92
2023-11-13T13:36:38.012Z,3.50
2023-11-13T13:39:07.936Z,3.80
2023-11-13T13:41:37.960Z,3.58
2023-11-13T13:44:05.280Z,3.33
2023-11-13T13:46:33.169Z,3.35
2023-11-13T13:49:00.549Z,3.28
2023-11-13T13:51:27.681Z,3.15
2023-11-13T13:53:55.362Z,3.28
2023-11-13T13:56:23.372Z,2.80
2023-11-13T13:58:50.526Z,3.10
2023-11-13T14:01:20.537Z,4.25
2023-11-13T14:03:47.757Z,4.50
2023-11-13T14:06:16.543Z,4.20
2023-11-13T14:08:46.125Z,5.13
2023-11-13T14:11:13.111Z,5.60
2023-11-13T14:13:40.861Z,5.05
2023-11-13T14:16:09.471Z,5.35
2023-11-13T14:18:39.341Z,5.82
2023-11-13T14:21:18.644Z,5.88
2023-11-13T14:23:45.637Z,6.30
2023-11-13T14:26:16.128Z,7.13
2023-11-13T14:28:45.755Z,7.22
2023-11-13T14:31:12.886Z,7.45
2023-11-13T14:33:40.502Z,7.13
2023-11-13T14:36:09.323Z,7.45
2023-11-13T14:38:36.869Z,6.68
2023-11-13T14:41:09.499Z,8.35
2023-11-13T14:43:36.897Z,7.45
2023-11-13T14:46:07.752Z,8.35
2023-11-13T14:48:34.972Z,8.40
2023-11-13T14:51:02.232Z,8.93
2023-11-13T14:53:29.248Z,8.93
2023-11-13T14:55:56.502Z,8.50
2023-11-13T14:58:23.570Z,8.25
2023-11-13T15:00:50.938Z,9.20
2023-11-13T15:03:18.544Z,9.52
2023-11-13T15:05:45.508Z,10.30
2023-11-13T15:08:13.591Z,8.95
2023-11-13T15:10:40.652Z,9.75
2023-11-13T15:13:09.513Z,9.85
2023-11-13T15:15:36.689Z,9.85
2023-11-13T15:18:05.220Z,10.13
2023-11-13T15:20:33.626Z,9.65
2023-11-13T15:23:14.711Z,9.00
2023-11-13T15:25:50.110Z,9.60
2023-11-13T15:28:17.251Z,9.38
2023-11-13T15:30:44.347Z,10.60
2023-11-13T15:33:11.257Z,10.93
2023-11-13T15:35:39.693Z,10.95
2023-11-13T15:38:06.676Z,11.65
2023-11-13T15:40:34.920Z,10.90
2023-11-13T15:43:02.350Z,12.07
2023-11-13T15:45:29.507Z,10.90
2023-11-13T15:47:57.413Z,11.00
2023-11-13T15:50:25.979Z,10.77
2023-11-13T15:52:56.068Z,10.82
2023-11-13T15:55:24.107Z,11.80
2023-11-13T15:57:51.308Z,11.20
2023-11-13T16:00:19.429Z,11.32
2023-11-13T16:02:48.182Z,12.05
2023-11-13T16:05:16.408Z,11.30
2023-11-13T16:07:43.621Z,12.15
2023-11-13T16:10:11.032Z,11.00
2023-11-13T16:12:42.100Z,10.48
2023-11-13T16:15:12.256Z,12.48
2023-11-13T16:17:40.867Z,10.95
2023-11-13T16:20:12.807Z,12.50
2023-11-13T16:22:40.635Z,11.32
2023-11-13T16:25:09.275Z,11.45
2023-11-13T16:27:38.378Z,10.77
2023-11-13T16:30:08.396Z,11.52
2023-11-13T16:32:36.350Z,11.90
2023-11-13T16:35:04.927Z,10.73
2023-11-13T16:37:32.060Z,12.02
2023-11-13T16:40:00.649Z,8.25
2023-11-13T16:42:28.612Z,8.65
2023-11-13T16:44:55.901Z,10.18
2023-11-13T16:47:23.303Z,10.07
2023-11-13T16:49:50.269Z,7.70
2023-11-13T16:52:18.107Z,8.27
2023-11-13T16:54:45.250Z,8.10
2023-11-13T16:57:12.242Z,7.85
2023-11-13T16:59:39.244Z,7.47
2023-11-13T17:02:08.064Z,7.97
2023-11-13T17:04:35.165Z,7.93
2023-11-13T17:07:02.453Z,6.93
2023-11-13T17:09:29.527Z,7.00
2023-11-13T17:11:56.530Z,6.78
2023-11-13T17:14:23.784Z,8.10
2023-11-13T17:16:50.885Z,7.20
2023-11-13T17:19:18.295Z,6.85
2023-11-13T17:21:49.258Z,7.63
2023-11-13T17:24:16.275Z,6.57
2023-11-13T17:26:43.954Z,7.35
2023-11-13T17:29:10.935Z,8.77
2023-11-13T17:31:38.017Z,7.68
2023-11-13T17:34:06.265Z,7.38
2023-11-13T17:36:33.656Z,8.18
2023-11-13T17:39:01.074Z,7.70
2023-11-13T17:41:29.062Z,7.90
2023-11-13T17:43:58.708Z,7.32
2023-11-13T17:46:25.882Z,7.82
2023-11-13T17:48:52.870Z,6.93
2023-11-13T17:51:20.068Z,7.28
2023-11-13T17:53:48.338Z,7.22
2023-11-13T17:56:15.266Z,7.90
2023-11-13T17:58:42.237Z,7.25
2023-11-13T18:01:09.272Z,8.48
2023-11-13T18:03:36.325Z,9.50
2023-11-13T18:06:06.677Z,9.73
2023-11-13T18:08:33.843Z,8.23
2023-11-13T18:11:03.078Z,7.85
2023-11-13T18:13:33.454Z,7.80
2023-11-13T18:16:06.393Z,8.40
2023-11-13T18:21:00.612Z,8.10
2023-11-13T18:23:28.846Z,8.05
2023-11-13T18:26:01.925Z,7.72
2023-11-13T18:28:29.020Z,7.88
2023-11-13T18:30:59.484Z,8.70
2023-11-13T18:33:30.422Z,7.88
2023-11-13T18:35:58.969Z,8.20
2023-11-13T18:38:26.928Z,8.32
2023-11-13T18:40:53.847Z,8.95
2023-11-13T18:43:21.284Z,8.50
2023-11-13T18:45:51.545Z,8.68
2023-11-13T18:48:19.685Z,8.68
2023-11-13T18:50:46.683Z,8.88
2023-11-13T18:53:13.871Z,9.02
2023-11-13T18:55:40.811Z,8.35
2023-11-13T18:58:07.783Z,7.95
2023-11-13T19:00:34.901Z,8.75
2023-11-13T19:03:01.978Z,8.05
2023-11-13T19:05:29.722Z,9.80
2023-11-13T19:07:57.378Z,9.23
2023-11-13T19:10:24.817Z,9.43
2023-11-13T19:12:52.447Z,8.80
2023-11-13T19:15:19.466Z,9.90
2023-11-13T19:17:46.762Z,8.93
2023-11-13T19:20:14.611Z,8.77
2023-11-13T19:22:42.491Z,9.40
2023-11-13T19:25:10.180Z,9.27
2023-11-13T19:27:38.781Z,8.98
2023-11-13T19:30:09.240Z,9.23
2023-11-13T19:32:36.250Z,8.45
2023-11-13T19:35:03.492Z,7.97
2023-11-13T19:37:30.531Z,8.75
2023-11-13T19:39:57.570Z,7.78
2023-11-13T19:42:25.346Z,7.95
2023-11-13T19:44:53.692Z,9.70
2023-11-13T19:47:21.111Z,9.68
2023-11-13T19:49:48.271Z,7.93
2023-11-13T19:52:16.434Z,8.23
2023-11-13T19:54:43.449Z,9.23
2023-11-13T19:57:10.501Z,8.95
2023-11-13T19:59:37.510Z,9.77
2023-11-13T20:02:04.789Z,9.43
2023-11-13T20:04:32.741Z,8.80
2023-11-13T20:06:59.924Z,9.75
2023-11-13T20:09:27.890Z,8.98
2023-11-13T20:11:54.866Z,8.18
2023-11-13T20:14:21.904Z,8.77
2023-11-13T20:16:49.309Z,8.55
2023-11-13T20:19:16.608Z,8.60
2023-11-13T20:21:43.857Z,8.55
2023-11-13T20:24:15.180Z,8.52
2023-11-13T20:26:42.286Z,8.23
2023-11-13T20:29:09.703Z,7.80
2023-11-13T20:31:36.656Z,8.95
2023-11-13T20:34:04.165Z,8.50
2023-11-13T20:36:32.634Z,8.30
2023-11-13T20:38:59.692Z,8.60
2023-11-13T20:41:27.935Z,8.75
2023-11-13T20:43:58.224Z,9.50
2023-11-13T20:46:25.488Z,7.80
2023-11-13T20:48:52.656Z,8.75
2023-11-13T20:51:21.110Z,9.13
2023-11-13T20:53:48.049Z,9.20
2023-11-13T20:56:15.369Z,8.05
2023-11-13T20:58:44.464Z,8.90
2023-11-13T21:01:13.691Z,8.93
2023-11-13T21:03:40.817Z,8.25
2023-11-13T21:06:09.240Z,8.32
2023-11-13T21:08:36.311Z,8.77
2023-11-13T21:11:05.569Z,8.57
2023-11-13T21:13:33.314Z,9.18
2023-11-13T21:16:00.597Z,9.15
2023-11-13T21:18:29.422Z,8.95
2023-11-13T21:21:00.018Z,8.90
2023-11-13T21:23:28.636Z,9.32
2023-11-13T21:25:55.671Z,9.00
2023-11-13T21:28:22.886Z,8.35
2023-11-13T21:30:51.921Z,9.30
2023-11-13T21:33:20.894Z,9.57
2023-11-13T21:35:48.216Z,7.72
2023-11-13T21:38:15.280Z,9.43
2023-11-13T21:40:44.660Z,9.32
2023-11-13T21:43:11.737Z,8.45
2023-11-13T21:45:39.306Z,8.45
2023-11-13T21:48:07.011Z,8.02
2023-11-13T21:50:34.023Z,8.43
2023-11-13T21:53:02.426Z,8.40
2023-11-13T21:55:30.607Z,7.85
2023-11-13T21:58:00.844Z,8.88
2023-11-13T22:00:29.152Z,9.90
2023-11-13T22:02:57.442Z,9.50
2023-11-13T22:05:25.285Z,9.30
2023-11-13T22:07:52.875Z,9.68
2023-11-13T22:10:20.004Z,9.52
2023-11-13T22:12:47.130Z,9.50
2023-11-13T22:15:16.422Z,9.82
2023-11-13T22:17:45.081Z,9.48
2023-11-13T22:20:13.300Z,9.77
2023-11-13T22:22:40.440Z,9.43
2023-11-13T22:25:09.321Z,8.95
2023-11-13T22:27:36.403Z,9.55
2023-11-13T22:30:03.645Z,9.82
2023-11-13T22:32:30.596Z,11.00
2023-11-13T22:34:57.694Z,9.73
2023-11-13T22:37:24.768Z,9.55
2023-11-13T22:39:51.725Z,8.98
2023-11-13T22:42:18.706Z,9.00
2023-11-13T22:44:45.795Z,10.73
2023-11-13T22:47:13.070Z,9.85
2023-11-13T22:49:41.617Z,9.93
2023-11-13T22:52:08.984Z,9.98
2023-11-13T22:54:35.922Z,9.52
2023-11-13T22:57:03.363Z,10.02
2023-11-13T22:59:30.374Z,9.25
2023-11-13T23:01:57.518Z,9.30
2023-11-13T23:04:24.771Z,8.27
2023-11-13T23:06:51.961Z,9.07
2023-11-13T23:09:20.194Z,9.55
2023-11-13T23:11:47.544Z,9.35
2023-11-13T23:14:14.527Z,9.18
2023-11-13T23:16:41.592Z,9.55
2023-11-13T23:19:09.550Z,10.07
2023-11-13T23:21:37.961Z,9.50
2023-11-13T23:24:05.129Z,10.57
2023-11-13T23:26:32.025Z,10.55
2023-11-13T23:28:59.005Z,9.02
2023-11-13T23:31:26.054Z,11.00
2023-11-13T23:33:53.797Z,10.32
2023-11-13T23:36:20.839Z,8.70
2023-11-13T23:38:47.815Z,9.82
2023-11-13T23:41:14.756Z,10.45
2023-11-13T23:43:41.743Z,10.70
2023-11-13T23:46:08.786Z,11.35
2023-11-13T23:48:36.082Z,10.30
2023-11-13T23:51:03.164Z,11.65
2023-11-13T23:53:30.197Z,8.95
2023-11-13T23:55:57.843Z,10.13
2023-11-13T23:58:25.768Z,9.57
